LET weather

Alfredo Vásquez Cobo International Airport
Leticia, Amazonas Department, Colombia

Public forecast

Using degrees Celsius for public forecast. Weather courtesy of forecast.io.

METAR (pilot weather report)

Retrieved 2019/04/22 09:00 UTC (39 minutes ago):

SKLT 220900Z 00000KT 9999 SCT016 SCT200 24/24 A2982

TAF (pilot weather forecast)

Retrieved 2019/04/22 06:00 UTC (4 hours ago):

TAF SKLT 220500Z 2206/2306 00000KT 9999 SCT012 SCT080 PROB40 2209/2213 4000 BR RADZ BKN010 SCT070 TEMPO 2219/2223 7000 TSRA SCT017CB TX32/2218Z TN23/2211Z